sensor_id;sensor_type;location;lat;lon;timestamp;P1;durP1;ratioP1;P2;durP2;ratioP2
10045;SDS011;5063;50.878;4.742;2022-08-03T00:01:28;1.83;;;1.48;;
10045;SDS011;5063;50.878;4.742;2022-08-03T00:03:54;3.75;;;1.67;;
10045;SDS011;5063;50.878;4.742;2022-08-03T00:06:20;3.90;;;2.00;;
10045;SDS011;5063;50.878;4.742;2022-08-03T00:08:45;3.13;;;1.88;;
10045;SDS011;5063;50.878;4.742;2022-08-03T00:11:11;4.80;;;1.83;;
10045;SDS011;5063;50.878;4.742;2022-08-03T00:13:37;3.33;;;1.80;;
10045;SDS011;5063;50.878;4.742;2022-08-03T00:16:04;2.28;;;1.88;;
10045;SDS011;5063;50.878;4.742;2022-08-03T00:18:29;3.88;;;1.70;;
10045;SDS011;5063;50.878;4.742;2022-08-03T00:20:55;2.47;;;1.73;;
10045;SDS011;5063;50.878;4.742;2022-08-03T00:23:21;5.40;;;1.70;;
10045;SDS011;5063;50.878;4.742;2022-08-03T00:25:46;4.07;;;1.90;;
10045;SDS011;5063;50.878;4.742;2022-08-03T00:28:12;3.55;;;1.75;;
10045;SDS011;5063;50.878;4.742;2022-08-03T00:30:38;2.63;;;1.67;;
10045;SDS011;5063;50.878;4.742;2022-08-03T00:33:04;3.03;;;2.10;;
10045;SDS011;5063;50.878;4.742;2022-08-03T00:35:30;3.27;;;1.70;;
10045;SDS011;5063;50.878;4.742;2022-08-03T00:37:56;6.23;;;2.13;;
10045;SDS011;5063;50.878;4.742;2022-08-03T00:40:22;7.93;;;2.20;;
10045;SDS011;5063;50.878;4.742;2022-08-03T00:42:55;2.17;;;1.70;;
10045;SDS011;5063;50.878;4.742;2022-08-03T00:45:23;3.80;;;2.00;;
10045;SDS011;5063;50.878;4.742;2022-08-03T00:47:51;2.10;;;1.80;;
10045;SDS011;5063;50.878;4.742;2022-08-03T00:50:18;3.27;;;1.67;;
10045;SDS011;5063;50.878;4.742;2022-08-03T00:52:46;3.70;;;1.80;;
10045;SDS011;5063;50.878;4.742;2022-08-03T00:55:12;4.00;;;1.50;;
10045;SDS011;5063;50.878;4.742;2022-08-03T00:57:38;4.20;;;1.80;;
10045;SDS011;5063;50.878;4.742;2022-08-03T01:00:06;4.60;;;1.67;;
10045;SDS011;5063;50.878;4.742;2022-08-03T01:02:34;3.47;;;1.53;;
10045;SDS011;5063;50.878;4.742;2022-08-03T01:05:00;3.13;;;1.43;;
10045;SDS011;5063;50.878;4.742;2022-08-03T01:07:31;2.97;;;1.50;;
10045;SDS011;5063;50.878;4.742;2022-08-03T01:13:09;3.23;;;1.77;;
10045;SDS011;5063;50.878;4.742;2022-08-03T01:21:18;3.23;;;1.43;;
10045;SDS011;5063;50.878;4.742;2022-08-03T01:32:24;2.77;;;1.80;;
10045;SDS011;5063;50.878;4.742;2022-08-03T01:34:56;2.77;;;1.67;;
10045;SDS011;5063;50.878;4.742;2022-08-03T01:37:40;5.23;;;1.70;;
10045;SDS011;5063;50.878;4.742;2022-08-03T01:40:11;3.07;;;1.33;;
10045;SDS011;5063;50.878;4.742;2022-08-03T01:42:40;2.47;;;1.63;;
10045;SDS011;5063;50.878;4.742;2022-08-03T01:45:09;3.30;;;1.13;;
10045;SDS011;5063;50.878;4.742;2022-08-03T01:47:38;3.90;;;1.90;;
10045;SDS011;5063;50.878;4.742;2022-08-03T01:50:05;4.87;;;1.93;;
10045;SDS011;5063;50.878;4.742;2022-08-03T01:52:32;1.43;;;1.33;;
10045;SDS011;5063;50.878;4.742;2022-08-03T01:55:01;1.70;;;1.40;;
10045;SDS011;5063;50.878;4.742;2022-08-03T01:57:29;4.23;;;1.67;;
10045;SDS011;5063;50.878;4.742;2022-08-03T01:59:55;5.63;;;1.90;;
10045;SDS011;5063;50.878;4.742;2022-08-03T02:02:24;3.00;;;1.70;;
10045;SDS011;5063;50.878;4.742;2022-08-03T02:04:51;1.93;;;1.50;;
10045;SDS011;5063;50.878;4.742;2022-08-03T02:07:19;4.50;;;1.70;;
10045;SDS011;5063;50.878;4.742;2022-08-03T02:09:46;3.20;;;2.00;;
10045;SDS011;5063;50.878;4.742;2022-08-03T02:12:15;4.53;;;1.50;;
10045;SDS011;5063;50.878;4.742;2022-08-03T02:14:42;4.07;;;1.70;;
10045;SDS011;5063;50.878;4.742;2022-08-03T02:17:10;3.80;;;1.60;;
10045;SDS011;5063;50.878;4.742;2022-08-03T02:19:38;2.43;;;1.43;;
10045;SDS011;5063;50.878;4.742;2022-08-03T02:22:07;4.10;;;2.10;;
10045;SDS011;5063;50.878;4.742;2022-08-03T02:24:34;1.93;;;1.67;;
10045;SDS011;5063;50.878;4.742;2022-08-03T02:27:00;4.67;;;1.87;;
10045;SDS011;5063;50.878;4.742;2022-08-03T02:29:32;2.23;;;1.70;;
10045;SDS011;5063;50.878;4.742;2022-08-03T02:32:00;2.67;;;1.60;;
10045;SDS011;5063;50.878;4.742;2022-08-03T02:34:28;5.40;;;1.70;;
10045;SDS011;5063;50.878;4.742;2022-08-03T02:36:55;2.77;;;1.70;;
10045;SDS011;5063;50.878;4.742;2022-08-03T02:39:24;3.60;;;1.70;;
10045;SDS011;5063;50.878;4.742;2022-08-03T02:41:55;4.03;;;2.13;;
10045;SDS011;5063;50.878;4.742;2022-08-03T02:44:27;3.33;;;2.03;;
10045;SDS011;5063;50.878;4.742;2022-08-03T02:46:57;2.27;;;1.53;;
10045;SDS011;5063;50.878;4.742;2022-08-03T02:49:29;3.37;;;1.90;;
10045;SDS011;5063;50.878;4.742;2022-08-03T02:51:55;3.87;;;1.90;;
10045;SDS011;5063;50.878;4.742;2022-08-03T02:54:23;2.77;;;1.87;;
10045;SDS011;5063;50.878;4.742;2022-08-03T02:56:51;3.20;;;2.20;;
10045;SDS011;5063;50.878;4.742;2022-08-03T02:59:19;2.90;;;1.80;;
10045;SDS011;5063;50.878;4.742;2022-08-03T03:01:46;7.07;;;2.40;;
10045;SDS011;5063;50.878;4.742;2022-08-03T03:04:12;5.53;;;2.30;;
10045;SDS011;5063;50.878;4.742;2022-08-03T03:06:40;3.47;;;1.83;;
10045;SDS011;5063;50.878;4.742;2022-08-03T03:09:07;3.93;;;2.20;;
10045;SDS011;5063;50.878;4.742;2022-08-03T03:11:33;3.93;;;1.87;;
10045;SDS011;5063;50.878;4.742;2022-08-03T03:14:02;3.97;;;1.97;;
10045;SDS011;5063;50.878;4.742;2022-08-03T03:16:28;4.37;;;2.43;;
10045;SDS011;5063;50.878;4.742;2022-08-03T03:18:55;3.80;;;2.30;;
10045;SDS011;5063;50.878;4.742;2022-08-03T03:21:22;3.20;;;1.97;;
10045;SDS011;5063;50.878;4.742;2022-08-03T03:23:49;3.70;;;2.00;;
10045;SDS011;5063;50.878;4.742;2022-08-03T03:26:16;3.73;;;1.93;;
10045;SDS011;5063;50.878;4.742;2022-08-03T03:28:43;4.23;;;1.90;;
10045;SDS011;5063;50.878;4.742;2022-08-03T03:31:09;3.40;;;1.80;;
10045;SDS011;5063;50.878;4.742;2022-08-03T03:33:36;3.90;;;2.17;;
10045;SDS011;5063;50.878;4.742;2022-08-03T03:36:03;2.47;;;1.83;;
10045;SDS011;5063;50.878;4.742;2022-08-03T03:38:31;1.83;;;1.67;;
10045;SDS011;5063;50.878;4.742;2022-08-03T03:40:57;5.43;;;2.67;;
10045;SDS011;5063;50.878;4.742;2022-08-03T03:43:24;3.43;;;2.03;;
10045;SDS011;5063;50.878;4.742;2022-08-03T03:45:49;3.53;;;2.20;;
10045;SDS011;5063;50.878;4.742;2022-08-03T03:48:17;2.93;;;1.63;;
10045;SDS011;5063;50.878;4.742;2022-08-03T03:50:43;4.73;;;2.07;;
10045;SDS011;5063;50.878;4.742;2022-08-03T03:53:10;4.43;;;2.13;;
10045;SDS011;5063;50.878;4.742;2022-08-03T03:55:37;3.30;;;2.00;;
10045;SDS011;5063;50.878;4.742;2022-08-03T03:58:04;2.83;;;2.00;;
10045;SDS011;5063;50.878;4.742;2022-08-03T04:00:30;3.73;;;2.20;;
10045;SDS011;5063;50.878;4.742;2022-08-03T04:02:56;6.50;;;2.43;;
10045;SDS011;5063;50.878;4.742;2022-08-03T04:05:21;3.53;;;1.80;;
10045;SDS011;5063;50.878;4.742;2022-08-03T04:08:07;2.77;;;1.90;;
10045;SDS011;5063;50.878;4.742;2022-08-03T04:13:43;4.53;;;1.93;;
10045;SDS011;5063;50.878;4.742;2022-08-03T04:16:14;3.67;;;2.00;;
10045;SDS011;5063;50.878;4.742;2022-08-03T04:18:43;2.17;;;1.90;;
10045;SDS011;5063;50.878;4.742;2022-08-03T04:21:12;4.43;;;2.60;;
10045;SDS011;5063;50.878;4.742;2022-08-03T04:23:40;4.13;;;2.13;;
10045;SDS011;5063;50.878;4.742;2022-08-03T04:26:12;4.10;;;1.90;;
10045;SDS011;5063;50.878;4.742;2022-08-03T04:28:40;5.53;;;2.23;;
10045;SDS011;5063;50.878;4.742;2022-08-03T04:31:10;4.07;;;1.53;;
10045;SDS011;5063;50.878;4.742;2022-08-03T04:33:37;5.93;;;2.10;;
10045;SDS011;5063;50.878;4.742;2022-08-03T04:36:06;5.03;;;2.00;;
10045;SDS011;5063;50.878;4.742;2022-08-03T04:38:36;4.87;;;1.90;;
10045;SDS011;5063;50.878;4.742;2022-08-03T04:41:05;4.97;;;1.90;;
10045;SDS011;5063;50.878;4.742;2022-08-03T04:43:32;3.23;;;2.00;;
10045;SDS011;5063;50.878;4.742;2022-08-03T04:45:59;2.90;;;1.90;;
10045;SDS011;5063;50.878;4.742;2022-08-03T04:48:26;2.90;;;2.00;;
10045;SDS011;5063;50.878;4.742;2022-08-03T04:50:53;3.87;;;1.90;;
10045;SDS011;5063;50.878;4.742;2022-08-03T04:53:19;4.70;;;2.27;;
10045;SDS011;5063;50.878;4.742;2022-08-03T04:55:45;4.17;;;2.13;;
10045;SDS011;5063;50.878;4.742;2022-08-03T04:58:11;7.47;;;2.00;;
10045;SDS011;5063;50.878;4.742;2022-08-03T05:00:37;4.17;;;1.93;;
10045;SDS011;5063;50.878;4.742;2022-08-03T05:03:02;2.50;;;1.50;;
10045;SDS011;5063;50.878;4.742;2022-08-03T05:05:28;4.23;;;1.90;;
10045;SDS011;5063;50.878;4.742;2022-08-03T05:07:54;3.97;;;2.07;;
10045;SDS011;5063;50.878;4.742;2022-08-03T05:10:20;2.10;;;1.77;;
10045;SDS011;5063;50.878;4.742;2022-08-03T05:12:47;1.70;;;1.60;;
10045;SDS011;5063;50.878;4.742;2022-08-03T05:15:13;3.33;;;1.70;;
10045;SDS011;5063;50.878;4.742;2022-08-03T05:17:40;4.28;;;1.77;;
10045;SDS011;5063;50.878;4.742;2022-08-03T05:20:05;4.60;;;1.63;;
10045;SDS011;5063;50.878;4.742;2022-08-03T05:22:32;3.67;;;1.90;;
10045;SDS011;5063;50.878;4.742;2022-08-03T05:24:57;2.10;;;1.52;;
10045;SDS011;5063;50.878;4.742;2022-08-03T05:27:24;2.57;;;1.70;;
10045;SDS011;5063;50.878;4.742;2022-08-03T05:29:50;3.35;;;1.77;;
10045;SDS011;5063;50.878;4.742;2022-08-03T05:32:17;6.80;;;2.07;;
10045;SDS011;5063;50.878;4.742;2022-08-03T05:34:43;4.20;;;1.63;;
10045;SDS011;5063;50.878;4.742;2022-08-03T05:37:09;5.37;;;2.07;;
10045;SDS011;5063;50.878;4.742;2022-08-03T05:39:35;3.60;;;2.03;;
10045;SDS011;5063;50.878;4.742;2022-08-03T05:42:02;3.40;;;1.87;;
10045;SDS011;5063;50.878;4.742;2022-08-03T05:44:28;3.90;;;1.70;;
10045;SDS011;5063;50.878;4.742;2022-08-03T05:46:55;3.17;;;1.90;;
10045;SDS011;5063;50.878;4.742;2022-08-03T05:49:21;4.43;;;2.23;;
10045;SDS011;5063;50.878;4.742;2022-08-03T05:51:47;4.33;;;2.20;;
10045;SDS011;5063;50.878;4.742;2022-08-03T05:54:13;3.20;;;1.70;;
10045;SDS011;5063;50.878;4.742;2022-08-03T05:56:38;4.33;;;2.00;;
10045;SDS011;5063;50.878;4.742;2022-08-03T05:59:05;4.07;;;1.70;;
10045;SDS011;5063;50.878;4.742;2022-08-03T06:01:31;3.53;;;1.97;;
10045;SDS011;5063;50.878;4.742;2022-08-03T06:03:57;2.97;;;1.73;;
10045;SDS011;5063;50.878;4.742;2022-08-03T06:06:23;4.03;;;1.87;;
10045;SDS011;5063;50.878;4.742;2022-08-03T06:08:49;5.47;;;1.93;;
10045;SDS011;5063;50.878;4.742;2022-08-03T06:11:14;3.57;;;2.03;;
10045;SDS011;5063;50.878;4.742;2022-08-03T06:13:41;5.07;;;1.92;;
10045;SDS011;5063;50.878;4.742;2022-08-03T06:16:07;3.78;;;1.90;;
10045;SDS011;5063;50.878;4.742;2022-08-03T06:18:33;1.88;;;1.50;;
10045;SDS011;5063;50.878;4.742;2022-08-03T06:20:59;3.00;;;1.75;;
10045;SDS011;5063;50.878;4.742;2022-08-03T06:23:25;2.03;;;1.42;;
10045;SDS011;5063;50.878;4.742;2022-08-03T06:25:51;3.42;;;1.63;;
10045;SDS011;5063;50.878;4.742;2022-08-03T06:28:16;8.73;;;1.58;;
10045;SDS011;5063;50.878;4.742;2022-08-03T06:30:42;2.72;;;1.52;;
10045;SDS011;5063;50.878;4.742;2022-08-03T06:33:08;3.53;;;1.90;;
10045;SDS011;5063;50.878;4.742;2022-08-03T06:35:34;6.15;;;1.70;;
10045;SDS011;5063;50.878;4.742;2022-08-03T06:38:00;2.15;;;1.70;;
10045;SDS011;5063;50.878;4.742;2022-08-03T06:40:26;3.25;;;1.52;;
10045;SDS011;5063;50.878;4.742;2022-08-03T06:42:56;2.95;;;1.55;;
10045;SDS011;5063;50.878;4.742;2022-08-03T06:45:23;2.35;;;1.65;;
10045;SDS011;5063;50.878;4.742;2022-08-03T06:47:58;1.42;;;1.20;;
10045;SDS011;5063;50.878;4.742;2022-08-03T06:50:26;3.35;;;1.30;;
10045;SDS011;5063;50.878;4.742;2022-08-03T06:52:51;2.63;;;1.05;;
10045;SDS011;5063;50.878;4.742;2022-08-03T06:55:17;2.63;;;1.48;;
10045;SDS011;5063;50.878;4.742;2022-08-03T06:57:43;2.47;;;1.48;;
10045;SDS011;5063;50.878;4.742;2022-08-03T07:00:09;2.63;;;1.23;;
10045;SDS011;5063;50.878;4.742;2022-08-03T07:02:36;3.70;;;1.30;;
10045;SDS011;5063;50.878;4.742;2022-08-03T07:05:02;2.17;;;1.10;;
10045;SDS011;5063;50.878;4.742;2022-08-03T07:07:28;3.35;;;1.27;;
10045;SDS011;5063;50.878;4.742;2022-08-03T07:09:54;1.27;;;1.13;;
10045;SDS011;5063;50.878;4.742;2022-08-03T07:12:19;5.32;;;1.30;;
10045;SDS011;5063;50.878;4.742;2022-08-03T07:14:45;4.47;;;1.35;;
10045;SDS011;5063;50.878;4.742;2022-08-03T07:17:11;4.25;;;1.30;;
10045;SDS011;5063;50.878;4.742;2022-08-03T07:19:37;5.45;;;1.55;;
10045;SDS011;5063;50.878;4.742;2022-08-03T07:22:02;1.95;;;1.20;;
10045;SDS011;5063;50.878;4.742;2022-08-03T07:24:28;2.70;;;1.25;;
10045;SDS011;5063;50.878;4.742;2022-08-03T07:26:54;1.48;;;1.13;;
10045;SDS011;5063;50.878;4.742;2022-08-03T07:29:20;1.75;;;1.48;;
10045;SDS011;5063;50.878;4.742;2022-08-03T07:31:45;2.67;;;1.10;;
10045;SDS011;5063;50.878;4.742;2022-08-03T07:34:11;2.95;;;1.15;;
10045;SDS011;5063;50.878;4.742;2022-08-03T07:36:37;2.90;;;1.63;;
10045;SDS011;5063;50.878;4.742;2022-08-03T07:39:03;2.28;;;1.23;;
10045;SDS011;5063;50.878;4.742;2022-08-03T07:41:29;4.13;;;1.40;;
10045;SDS011;5063;50.878;4.742;2022-08-03T07:43:55;4.30;;;1.73;;
10045;SDS011;5063;50.878;4.742;2022-08-03T07:46:21;2.80;;;1.35;;
10045;SDS011;5063;50.878;4.742;2022-08-03T07:48:47;4.03;;;1.45;;
10045;SDS011;5063;50.878;4.742;2022-08-03T07:51:13;3.05;;;1.75;;
10045;SDS011;5063;50.878;4.742;2022-08-03T07:53:38;7.32;;;1.67;;
10045;SDS011;5063;50.878;4.742;2022-08-03T07:56:04;3.25;;;1.35;;
10045;SDS011;5063;50.878;4.742;2022-08-03T07:58:30;3.30;;;1.20;;
10045;SDS011;5063;50.878;4.742;2022-08-03T08:00:56;3.95;;;1.40;;
10045;SDS011;5063;50.878;4.742;2022-08-03T08:03:21;4.10;;;1.73;;
10045;SDS011;5063;50.878;4.742;2022-08-03T08:05:47;4.50;;;1.38;;
10045;SDS011;5063;50.878;4.742;2022-08-03T08:08:13;3.08;;;1.48;;
10045;SDS011;5063;50.878;4.742;2022-08-03T08:10:39;7.82;;;1.48;;
10045;SDS011;5063;50.878;4.742;2022-08-03T08:13:04;2.80;;;1.63;;
10045;SDS011;5063;50.878;4.742;2022-08-03T08:15:30;4.40;;;1.55;;
10045;SDS011;5063;50.878;4.742;2022-08-03T08:17:57;4.95;;;1.50;;
10045;SDS011;5063;50.878;4.742;2022-08-03T08:20:26;3.90;;;1.42;;
10045;SDS011;5063;50.878;4.742;2022-08-03T08:22:57;5.75;;;1.70;;
10045;SDS011;5063;50.878;4.742;2022-08-03T08:25:25;6.18;;;1.63;;
10045;SDS011;5063;50.878;4.742;2022-08-03T08:27:50;4.15;;;1.27;;
10045;SDS011;5063;50.878;4.742;2022-08-03T08:30:17;7.80;;;1.55;;
10045;SDS011;5063;50.878;4.742;2022-08-03T08:32:45;5.85;;;1.30;;
10045;SDS011;5063;50.878;4.742;2022-08-03T08:35:11;4.68;;;1.50;;
10045;SDS011;5063;50.878;4.742;2022-08-03T08:37:37;5.32;;;1.75;;
10045;SDS011;5063;50.878;4.742;2022-08-03T08:40:04;5.07;;;1.50;;
10045;SDS011;5063;50.878;4.742;2022-08-03T08:42:32;2.72;;;1.25;;
10045;SDS011;5063;50.878;4.742;2022-08-03T08:45:02;6.68;;;1.92;;
10045;SDS011;5063;50.878;4.742;2022-08-03T08:47:30;4.88;;;1.60;;
10045;SDS011;5063;50.878;4.742;2022-08-03T08:49:56;3.72;;;1.20;;
10045;SDS011;5063;50.878;4.742;2022-08-03T08:52:24;3.60;;;1.70;;
10045;SDS011;5063;50.878;4.742;2022-08-03T08:54:53;2.90;;;1.70;;
10045;SDS011;5063;50.878;4.742;2022-08-03T08:57:29;4.45;;;1.75;;
10045;SDS011;5063;50.878;4.742;2022-08-03T09:00:08;3.55;;;1.48;;
10045;SDS011;5063;50.878;4.742;2022-08-03T09:02:38;5.38;;;1.40;;
10045;SDS011;5063;50.878;4.742;2022-08-03T09:05:08;4.07;;;1.52;;
10045;SDS011;5063;50.878;4.742;2022-08-03T09:07:36;5.18;;;2.05;;
10045;SDS011;5063;50.878;4.742;2022-08-03T09:10:03;3.08;;;1.33;;
10045;SDS011;5063;50.878;4.742;2022-08-03T09:12:29;3.58;;;1.63;;
10045;SDS011;5063;50.878;4.742;2022-08-03T09:14:55;2.80;;;1.33;;
10045;SDS011;5063;50.878;4.742;2022-08-03T09:17:20;5.00;;;1.50;;
10045;SDS011;5063;50.878;4.742;2022-08-03T09:20:02;5.18;;;1.60;;
10045;SDS011;5063;50.878;4.742;2022-08-03T09:22:30;4.43;;;1.60;;
10045;SDS011;5063;50.878;4.742;2022-08-03T09:25:01;3.85;;;1.55;;
10045;SDS011;5063;50.878;4.742;2022-08-03T09:27:42;1.63;;;1.35;;
10045;SDS011;5063;50.878;4.742;2022-08-03T09:30:16;6.38;;;1.52;;
10045;SDS011;5063;50.878;4.742;2022-08-03T09:32:43;5.97;;;1.50;;
10045;SDS011;5063;50.878;4.742;2022-08-03T09:35:10;4.82;;;1.20;;
10045;SDS011;5063;50.878;4.742;2022-08-03T09:37:37;6.45;;;1.48;;
10045;SDS011;5063;50.878;4.742;2022-08-03T09:40:04;2.33;;;1.08;;
10045;SDS011;5063;50.878;4.742;2022-08-03T09:42:30;3.28;;;1.08;;
10045;SDS011;5063;50.878;4.742;2022-08-03T09:44:59;4.53;;;1.70;;
10045;SDS011;5063;50.878;4.742;2022-08-03T09:50:01;3.72;;;1.75;;
10045;SDS011;5063;50.878;4.742;2022-08-03T09:52:33;1.60;;;1.23;;
10045;SDS011;5063;50.878;4.742;2022-08-03T09:55:07;5.88;;;1.67;;
10045;SDS011;5063;50.878;4.742;2022-08-03T09:57:34;5.50;;;1.52;;
10045;SDS011;5063;50.878;4.742;2022-08-03T10:00:08;4.32;;;1.33;;
10045;SDS011;5063;50.878;4.742;2022-08-03T10:02:36;3.67;;;1.45;;
10045;SDS011;5063;50.878;4.742;2022-08-03T10:05:03;2.60;;;1.10;;
10045;SDS011;5063;50.878;4.742;2022-08-03T10:07:40;1.70;;;1.20;;
10045;SDS011;5063;50.878;4.742;2022-08-03T10:10:09;1.30;;;1.08;;
10045;SDS011;5063;50.878;4.742;2022-08-03T10:12:36;4.30;;;1.45;;
10045;SDS011;5063;50.878;4.742;2022-08-03T10:15:03;1.38;;;1.10;;
10045;SDS011;5063;50.878;4.742;2022-08-03T10:17:30;2.25;;;1.05;;
10045;SDS011;5063;50.878;4.742;2022-08-03T10:19:55;2.10;;;1.02;;
10045;SDS011;5063;50.878;4.742;2022-08-03T10:22:24;4.38;;;1.33;;
10045;SDS011;5063;50.878;4.742;2022-08-03T10:24:54;3.60;;;1.20;;
10045;SDS011;5063;50.878;4.742;2022-08-03T10:27:23;3.33;;;1.30;;
10045;SDS011;5063;50.878;4.742;2022-08-03T10:29:54;1.95;;;1.10;;
10045;SDS011;5063;50.878;4.742;2022-08-03T10:32:29;1.33;;;1.08;;
10045;SDS011;5063;50.878;4.742;2022-08-03T10:35:05;3.40;;;1.35;;
10045;SDS011;5063;50.878;4.742;2022-08-03T10:37:33;1.17;;;1.08;;
10045;SDS011;5063;50.878;4.742;2022-08-03T10:40:05;5.20;;;1.33;;
10045;SDS011;5063;50.878;4.742;2022-08-03T10:42:33;2.58;;;1.60;;
10045;SDS011;5063;50.878;4.742;2022-08-03T10:45:04;2.25;;;1.10;;
10045;SDS011;5063;50.878;4.742;2022-08-03T10:47:33;3.30;;;1.25;;
10045;SDS011;5063;50.878;4.742;2022-08-03T10:50:00;2.42;;;1.30;;
10045;SDS011;5063;50.878;4.742;2022-08-03T10:52:27;3.50;;;1.67;;
10045;SDS011;5063;50.878;4.742;2022-08-03T10:54:53;3.83;;;1.50;;
10045;SDS011;5063;50.878;4.742;2022-08-03T10:57:47;2.03;;;1.05;;
10045;SDS011;5063;50.878;4.742;2022-08-03T11:00:24;1.92;;;1.30;;
10045;SDS011;5063;50.878;4.742;2022-08-03T11:03:01;3.88;;;1.55;;
10045;SDS011;5063;50.878;4.742;2022-08-03T11:05:30;3.88;;;1.30;;
10045;SDS011;5063;50.878;4.742;2022-08-03T11:10:45;1.50;;;1.10;;
10045;SDS011;5063;50.878;4.742;2022-08-03T11:13:16;1.80;;;1.10;;
10045;SDS011;5063;50.878;4.742;2022-08-03T11:15:44;1.73;;;1.30;;
10045;SDS011;5063;50.878;4.742;2022-08-03T11:18:12;3.67;;;1.20;;
10045;SDS011;5063;50.878;4.742;2022-08-03T11:20:53;2.80;;;1.40;;
10045;SDS011;5063;50.878;4.742;2022-08-03T11:23:40;5.70;;;1.45;;
10045;SDS011;5063;50.878;4.742;2022-08-03T11:28:45;5.57;;;1.80;;
10045;SDS011;5063;50.878;4.742;2022-08-03T11:34:03;1.45;;;1.23;;
10045;SDS011;5063;50.878;4.742;2022-08-03T11:45:05;1.42;;;1.02;;
10045;SDS011;5063;50.878;4.742;2022-08-03T11:47:35;2.03;;;1.10;;
10045;SDS011;5063;50.878;4.742;2022-08-03T11:50:02;2.38;;;1.10;;
10045;SDS011;5063;50.878;4.742;2022-08-03T11:52:35;1.75;;;1.23;;
10045;SDS011;5063;50.878;4.742;2022-08-03T11:55:02;1.75;;;1.20;;
10045;SDS011;5063;50.878;4.742;2022-08-03T11:57:34;3.17;;;1.02;;
10045;SDS011;5063;50.878;4.742;2022-08-03T12:00:00;2.60;;;1.20;;
10045;SDS011;5063;50.878;4.742;2022-08-03T12:02:26;2.13;;;1.45;;
10045;SDS011;5063;50.878;4.742;2022-08-03T12:04:53;3.55;;;1.50;;
10045;SDS011;5063;50.878;4.742;2022-08-03T12:07:26;1.90;;;1.27;;
10045;SDS011;5063;50.878;4.742;2022-08-03T12:10:05;2.47;;;1.20;;
10045;SDS011;5063;50.878;4.742;2022-08-03T12:12:36;3.80;;;1.35;;
10045;SDS011;5063;50.878;4.742;2022-08-03T12:15:03;1.90;;;1.38;;
10045;SDS011;5063;50.878;4.742;2022-08-03T12:20:04;2.67;;;1.20;;
10045;SDS011;5063;50.878;4.742;2022-08-03T12:22:38;2.03;;;1.40;;
10045;SDS011;5063;50.878;4.742;2022-08-03T12:25:07;4.00;;;1.27;;
10045;SDS011;5063;50.878;4.742;2022-08-03T12:27:34;1.58;;;1.23;;
10045;SDS011;5063;50.878;4.742;2022-08-03T12:30:00;2.50;;;1.42;;
10045;SDS011;5063;50.878;4.742;2022-08-03T12:32:27;1.80;;;1.30;;
10045;SDS011;5063;50.878;4.742;2022-08-03T12:34:54;1.30;;;1.20;;
10045;SDS011;5063;50.878;4.742;2022-08-03T12:37:25;2.70;;;1.33;;
10045;SDS011;5063;50.878;4.742;2022-08-03T12:39:52;1.77;;;1.13;;
10045;SDS011;5063;50.878;4.742;2022-08-03T12:42:19;1.48;;;1.20;;
10045;SDS011;5063;50.878;4.742;2022-08-03T12:44:45;1.15;;;1.02;;
10045;SDS011;5063;50.878;4.742;2022-08-03T12:47:13;2.88;;;1.48;;
10045;SDS011;5063;50.878;4.742;2022-08-03T12:49:44;1.50;;;1.23;;
10045;SDS011;5063;50.878;4.742;2022-08-03T12:52:10;3.25;;;1.20;;
10045;SDS011;5063;50.878;4.742;2022-08-03T12:54:36;2.33;;;1.55;;
10045;SDS011;5063;50.878;4.742;2022-08-03T12:59:30;6.53;;;1.52;;
10045;SDS011;5063;50.878;4.742;2022-08-03T13:02:00;2.20;;;1.58;;
10045;SDS011;5063;50.878;4.742;2022-08-03T13:04:27;2.33;;;1.30;;
10045;SDS011;5063;50.878;4.742;2022-08-03T13:07:01;4.53;;;1.23;;
10045;SDS011;5063;50.878;4.742;2022-08-03T13:09:29;2.97;;;1.30;;
10045;SDS011;5063;50.878;4.742;2022-08-03T13:12:08;1.80;;;1.10;;
10045;SDS011;5063;50.878;4.742;2022-08-03T13:14:34;1.63;;;1.52;;
10045;SDS011;5063;50.878;4.742;2022-08-03T13:16:59;1.63;;;1.20;;
10045;SDS011;5063;50.878;4.742;2022-08-03T13:19:25;3.50;;;1.40;;
10045;SDS011;5063;50.878;4.742;2022-08-03T13:21:51;1.02;;;1.02;;
10045;SDS011;5063;50.878;4.742;2022-08-03T13:24:17;2.63;;;1.40;;
10045;SDS011;5063;50.878;4.742;2022-08-03T13:26:43;2.60;;;1.10;;
10045;SDS011;5063;50.878;4.742;2022-08-03T13:29:09;5.20;;;1.50;;
10045;SDS011;5063;50.878;4.742;2022-08-03T13:31:35;1.67;;;1.23;;
10045;SDS011;5063;50.878;4.742;2022-08-03T13:34:01;3.00;;;1.48;;
10045;SDS011;5063;50.878;4.742;2022-08-03T13:36:26;4.78;;;1.20;;
10045;SDS011;5063;50.878;4.742;2022-08-03T13:38:52;2.95;;;0.93;;
10045;SDS011;5063;50.878;4.742;2022-08-03T13:41:18;1.75;;;1.27;;
10045;SDS011;5063;50.878;4.742;2022-08-03T13:43:44;1.38;;;0.82;;
10045;SDS011;5063;50.878;4.742;2022-08-03T13:46:09;2.13;;;0.98;;
10045;SDS011;5063;50.878;4.742;2022-08-03T13:48:35;1.88;;;1.20;;
10045;SDS011;5063;50.878;4.742;2022-08-03T13:51:01;1.90;;;1.23;;
10045;SDS011;5063;50.878;4.742;2022-08-03T13:53:27;1.98;;;1.17;;
10045;SDS011;5063;50.878;4.742;2022-08-03T13:55:52;1.85;;;1.02;;
10045;SDS011;5063;50.878;4.742;2022-08-03T13:58:18;1.45;;;1.15;;
10045;SDS011;5063;50.878;4.742;2022-08-03T14:00:44;2.10;;;1.10;;
10045;SDS011;5063;50.878;4.742;2022-08-03T14:03:10;1.23;;;0.98;;
10045;SDS011;5063;50.878;4.742;2022-08-03T14:05:35;1.13;;;1.02;;
10045;SDS011;5063;50.878;4.742;2022-08-03T14:08:03;1.55;;;1.30;;
10045;SDS011;5063;50.878;4.742;2022-08-03T14:10:37;3.10;;;1.10;;
10045;SDS011;5063;50.878;4.742;2022-08-03T14:13:05;2.78;;;1.20;;
10045;SDS011;5063;50.878;4.742;2022-08-03T14:15:31;1.25;;;1.15;;
10045;SDS011;5063;50.878;4.742;2022-08-03T14:17:57;2.92;;;1.33;;
10045;SDS011;5063;50.878;4.742;2022-08-03T14:20:23;1.95;;;1.20;;
10045;SDS011;5063;50.878;4.742;2022-08-03T14:22:49;1.33;;;1.20;;
10045;SDS011;5063;50.878;4.742;2022-08-03T14:25:14;1.40;;;1.25;;
10045;SDS011;5063;50.878;4.742;2022-08-03T14:27:40;3.10;;;1.33;;
10045;SDS011;5063;50.878;4.742;2022-08-03T14:30:06;1.70;;;1.33;;
10045;SDS011;5063;50.878;4.742;2022-08-03T14:32:32;1.45;;;1.05;;
10045;SDS011;5063;50.878;4.742;2022-08-03T14:34:58;1.50;;;1.10;;
10045;SDS011;5063;50.878;4.742;2022-08-03T14:37:24;1.10;;;1.00;;
10045;SDS011;5063;50.878;4.742;2022-08-03T14:39:49;2.30;;;1.20;;
10045;SDS011;5063;50.878;4.742;2022-08-03T14:42:15;3.80;;;1.13;;
10045;SDS011;5063;50.878;4.742;2022-08-03T14:44:41;5.70;;;1.23;;
10045;SDS011;5063;50.878;4.742;2022-08-03T14:47:07;3.15;;;1.50;;
10045;SDS011;5063;50.878;4.742;2022-08-03T14:49:32;3.03;;;1.25;;
10045;SDS011;5063;50.878;4.742;2022-08-03T14:51:58;1.92;;;1.08;;
10045;SDS011;5063;50.878;4.742;2022-08-03T14:54:24;2.35;;;1.10;;
10045;SDS011;5063;50.878;4.742;2022-08-03T14:56:50;3.10;;;1.15;;
10045;SDS011;5063;50.878;4.742;2022-08-03T14:59:16;4.20;;;1.30;;
10045;SDS011;5063;50.878;4.742;2022-08-03T15:01:41;1.15;;;1.08;;
10045;SDS011;5063;50.878;4.742;2022-08-03T15:04:07;3.63;;;1.00;;
10045;SDS011;5063;50.878;4.742;2022-08-03T15:06:33;2.60;;;1.20;;
10045;SDS011;5063;50.878;4.742;2022-08-03T15:08:58;1.25;;;1.15;;
10045;SDS011;5063;50.878;4.742;2022-08-03T15:11:24;2.78;;;1.42;;
10045;SDS011;5063;50.878;4.742;2022-08-03T15:13:50;1.85;;;1.10;;
10045;SDS011;5063;50.878;4.742;2022-08-03T15:16:16;1.05;;;1.00;;
10045;SDS011;5063;50.878;4.742;2022-08-03T15:18:42;2.63;;;1.25;;
10045;SDS011;5063;50.878;4.742;2022-08-03T15:21:07;1.02;;;0.93;;
10045;SDS011;5063;50.878;4.742;2022-08-03T15:23:33;1.77;;;1.15;;
10045;SDS011;5063;50.878;4.742;2022-08-03T15:25:59;1.58;;;1.27;;
10045;SDS011;5063;50.878;4.742;2022-08-03T15:28:24;1.45;;;1.15;;
10045;SDS011;5063;50.878;4.742;2022-08-03T15:30:51;3.47;;;1.17;;
10045;SDS011;5063;50.878;4.742;2022-08-03T15:33:17;1.60;;;0.88;;
10045;SDS011;5063;50.878;4.742;2022-08-03T15:35:42;1.63;;;1.30;;
10045;SDS011;5063;50.878;4.742;2022-08-03T15:38:10;1.42;;;1.10;;
10045;SDS011;5063;50.878;4.742;2022-08-03T15:40:36;3.40;;;1.42;;
10045;SDS011;5063;50.878;4.742;2022-08-03T15:43:01;1.52;;;1.20;;
10045;SDS011;5063;50.878;4.742;2022-08-03T15:45:27;2.50;;;1.00;;
10045;SDS011;5063;50.878;4.742;2022-08-03T15:47:53;1.92;;;1.58;;